European Highlander — C6SN6 — position and weather

sailwx.info

Track history (hours):
 
Tides and Currents Weather Stations Pressure Air Temp Water Temp Dewpoint Dewpoint Depression Visibility Wind Speed Wind Dir Waves Ship Positions

European Highlander

Operator: P&O Irish Sea Ltd

Last reported at 2019-Mar-22 12:30 UTC. Time now 2019-Mar-22 12:53 UTC.
Position N 54°58' W 005°01'.

Length 161 m; draft 5.5 m.

Type: Passenger vessel. MMSI: 311404000.

Date/timePositionNaut miles runAvg speedWind from/ knotsBaromVisibWave heightAir tempDewpointWater temp
2019-Mar-22 12:30N 54°58' W 005°01'510.1
2019-Mar-22 11:59N 55°02' W 005°07'817.8
2019-Mar-22 11:31N 54°57' W 005°19'917.7
2019-Mar-22 11:01N 54°55' W 005°34'917.0
2019-Mar-22 10:30N 54°51' W 005°48'0 0.3
2019-Mar-22 09:58N 54°51' W 005°48'0 0.0
2019-Mar-22 09:25N 54°51' W 005°48'3 6.4
2019-Mar-22 09:01N 54°53' W 005°44'1019.6
2019-Mar-22 08:30N 54°57' W 005°29'1019.9
2019-Mar-22 08:01N 55°01' W 005°13'713.7
2019-Mar-22 07:30N 54°58' W 005°02'1 1.6
2019-Mar-22 06:53N 54°58' W 005°01'0 0.0
2019-Mar-22 06:20N 54°58' W 005°01'0 0.0
2019-Mar-22 06:00N 54°58' W 005°01'5 9.8
2019-Mar-22 05:29N 55°02' W 005°07'916.7
2019-Mar-22 04:58N 54°58' W 005°21'817.2
2019-Mar-22 04:30N 54°55' W 005°33'917.4
2019-Mar-22 04:00N 54°52' W 005°47'1 1.9
2019-Mar-22 03:29N 54°51' W 005°48'0 0.0
2019-Mar-22 02:59N 54°51' W 005°48'0 0.0
2019-Mar-22 02:29N 54°51' W 005°48'0 0.0
2019-Mar-22 02:00N 54°51' W 005°48'4 9.0
2019-Mar-22 01:30N 54°53' W 005°42'918.0
2019-Mar-22 01:00N 54°57' W 005°28'917.1
2019-Mar-22 00:30N 55°01' W 005°14'713.8
2019-Mar-22 00:00N 54°59' W 005°02'1 2.5
2019-Mar-21 23:28N 54°58' W 005°01'0 0.0
2019-Mar-21 22:40N 54°58' W 005°01'0 0.0
2019-Mar-21 22:22N 54°58' W 005°01'0 0.0
2019-Mar-21 22:00N 54°58' W 005°01'5 9.7
2019-Mar-21 21:30N 55°02' W 005°07'816.3
2019-Mar-21 21:00N 54°59' W 005°19'917.5
2019-Mar-21 20:30N 54°55' W 005°33'917.9
2019-Mar-21 20:01N 54°51' W 005°48'1 1.3
2019-Mar-21 19:31N 54°51' W 005°48'0 0.0
2019-Mar-21 19:01N 54°51' W 005°48'0 0.0
2019-Mar-21 18:30N 54°51' W 005°48'510.0
2019-Mar-21 18:01N 54°53' W 005°40'1019.8
2019-Mar-21 17:31N 54°58' W 005°25'1020.3
2019-Mar-21 17:00N 55°01' W 005°08'611.5
2019-Mar-21 16:30N 54°58' W 005°01'0 0.0
2019-Mar-21 15:58N 54°58' W 005°01'0 0.0
2019-Mar-21 15:30N 54°58' W 005°01'5 9.1
2019-Mar-21 14:57N 55°01' W 005°07'920.3
2019-Mar-21 14:30N 54°58' W 005°21'1019.8
2019-Mar-21 14:00N 54°54' W 005°37'711.9
2019-Mar-21 13:25N 54°51' W 005°48'0 0.0
2019-Mar-21 12:58N 54°51' W 005°48'0 0.0
2019-Mar-21 12:30N 54°51' W 005°48'612.4
2019-Mar-21 12:00N 54°54' W 005°39'918.2
2019-Mar-21 11:30N 54°58' W 005°24'917.6
2019-Mar-21 11:00N 55°01' W 005°10'613.0
2019-Mar-21 10:30N 54°58' W 005°01'0 0.1
2019-Mar-21 09:59N 54°58' W 005°01'0 0.0
2019-Mar-21 09:30N 54°58' W 005°01'5 8.7
2019-Mar-21 08:55N 55°02' W 005°07'716.4
2019-Mar-21 08:30N 54°59' W 005°18'917.5
2019-Mar-21 08:00N 54°55' W 005°31'1018.8
2019-Mar-21 07:29N 54°52' W 005°47'1 1.9
2019-Mar-21 06:59N 54°51' W 005°48'0 0.0
2019-Mar-21 06:29N 54°51' W 005°48'0 0.0
2019-Mar-21 06:00N 54°51' W 005°48'510.2
2019-Mar-21 05:30N 54°54' W 005°41'917.5
2019-Mar-21 05:00N 54°58' W 005°27'917.7
2019-Mar-21 04:30N 55°01' W 005°13'612.0
2019-Mar-21 04:00N 54°59' W 005°03'2 3.2
2019-Mar-21 03:30N 54°58' W 005°01'0 0.0
2019-Mar-21 03:00N 54°58' W 005°01'0 0.0
2019-Mar-21 02:30N 54°58' W 005°01'0 0.0
2019-Mar-21 01:57N 54°58' W 005°01'5 8.6
2019-Mar-21 01:22N 55°02' W 005°06'720.7
2019-Mar-21 01:01N 54°59' W 005°18'1020.2
2019-Mar-21 00:30N 54°55' W 005°35'817.0
2019-Mar-21 00:01N 54°51' W 005°48'0 0.3
2019-Mar-20 23:30N 54°51' W 005°48'0 0.0
2019-Mar-20 23:00N 54°51' W 005°48'0 0.0
2019-Mar-20 22:30N 54°51' W 005°48'0 0.0
2019-Mar-20 22:00N 54°51' W 005°48'4 8.6
2019-Mar-20 21:31N 54°53' W 005°42'917.0
2019-Mar-20 21:01N 54°57' W 005°29'917.1
2019-Mar-20 20:31N 55°00' W 005°15'713.5
2019-Mar-20 20:00N 54°59' W 005°03'2 3.3
2019-Mar-20 19:27N 54°58' W 005°01'0 0.0
2019-Mar-20 19:00N 54°58' W 005°01'0 0.0
2019-Mar-20 18:30N 54°58' W 005°01'5 9.7
2019-Mar-20 17:59N 55°02' W 005°07'816.3
2019-Mar-20 17:30N 54°58' W 005°19'918.2
2019-Mar-20 17:00N 54°55' W 005°34'917.2
2019-Mar-20 16:30N 54°51' W 005°48'1 1.1
2019-Mar-20 16:00N 54°51' W 005°48'0 0.0
2019-Mar-20 15:30N 54°51' W 005°48'4 8.7
2019-Mar-20 15:00N 54°53' W 005°42'917.7
2019-Mar-20 14:30N 54°58' W 005°28'917.3
2019-Mar-20 14:00N 55°01' W 005°14'713.8
2019-Mar-20 13:30N 54°59' W 005°03'1 2.0
2019-Mar-20 12:46N 54°58' W 005°01'0 0.0
2019-Mar-20 12:30N 54°58' W 005°01'5 9.7
2019-Mar-20 11:59N 55°02' W 005°07'918.5
2019-Mar-20 11:30N 54°58' W 005°21'917.9
2019-Mar-20 11:01N 54°54' W 005°35'816.0
2019-Mar-20 10:30N 54°51' W 005°48'0 0.2
2019-Mar-20 10:00N 54°51' W 005°48'0 0.0
2019-Mar-20 09:30N 54°51' W 005°48'612.4
2019-Mar-20 09:01N 54°54' W 005°39'1121.4
2019-Mar-20 08:31N 54°59' W 005°22'1116.6
2019-Mar-20 07:51N 54°59' W 005°03'2 5.2
2019-Mar-20 07:30N 54°58' W 005°01'0 0.0
2019-Mar-20 06:54N 54°58' W 005°01'0 0.0
2019-Mar-20 06:27N 54°58' W 005°01'0 0.0
2019-Mar-20 06:00N 54°58' W 005°01'5 9.8
2019-Mar-20 05:29N 55°02' W 005°07'816.5
2019-Mar-20 05:00N 54°58' W 005°19'918.3
2019-Mar-20 04:30N 54°55' W 005°34'917.0
2019-Mar-20 04:00N 54°51' W 005°48'0 0.4
2019-Mar-20 03:30N 54°51' W 005°48'0 0.0
2019-Mar-20 03:00N 54°51' W 005°48'0 0.0
2019-Mar-20 02:30N 54°51' W 005°48'0 0.0
2019-Mar-20 02:00N 54°51' W 005°48'4 8.4
2019-Mar-20 01:30N 54°53' W 005°42'918.0
2019-Mar-20 01:00N 54°57' W 005°28'917.3
2019-Mar-20 00:30N 55°01' W 005°15'714.4
2019-Mar-20 00:00N 54°59' W 005°02'1 1.5
2019-Mar-19 23:05N 54°58' W 005°01'0 0.0
2019-Mar-19 22:29N 54°58' W 005°01'0 0.1
2019-Mar-19 22:00N 54°58' W 005°01'713.3
2019-Mar-19 21:30N 55°01' W 005°11'918.5
2019-Mar-19 21:00N 54°57' W 005°25'1020.4
2019-Mar-19 20:30N 54°53' W 005°42'4 8.6
2019-Mar-19 20:01N 54°51' W 005°48'0 0.0
2019-Mar-19 19:30N 54°51' W 005°48'0 0.0
2019-Mar-19 19:00N 54°51' W 005°48'0 0.0
2019-Mar-19 18:31N 54°51' W 005°48'3 6.4
2019-Mar-19 18:01N 54°53' W 005°43'917.7
2019-Mar-19 17:31N 54°57' W 005°30'918.9
2019-Mar-19 17:01N 55°01' W 005°15'714.4
2019-Mar-19 16:30N 54°59' W 005°02'1 2.6
2019-Mar-19 15:58N 54°58' W 005°01'0 0.0
2019-Mar-19 15:28N 54°58' W 005°01'5 9.1
2019-Mar-19 14:56N 55°01' W 005°07'717.4
2019-Mar-19 14:31N 54°59' W 005°18'918.0
2019-Mar-19 14:00N 54°55' W 005°33'917.5
2019-Mar-19 13:30N 54°52' W 005°47'1 2.7
2019-Mar-19 13:00N 54°51' W 005°48'0 0.0
2019-Mar-19 12:30N 54°51' W 005°48'4 8.2
2019-Mar-19 12:00N 54°53' W 005°42'917.9
2019-Mar-19 11:30N 54°58' W 005°29'917.2
2019-Mar-19 11:00N 55°02' W 005°15'715.0
2019-Mar-19 10:30N 54°59' W 005°03'2 1.6
2019-Mar-19 09:26N 54°58' W 005°01'510.1
2019-Mar-19 08:56N 55°02' W 005°07'717.7
2019-Mar-19 08:31N 55°01' W 005°20'918.1
2019-Mar-19 08:01N 54°56' W 005°33'918.4
2019-Mar-19 07:30N 54°52' W 005°47'1 2.1
2019-Mar-19 07:00N 54°51' W 005°48'0 0.0
2019-Mar-19 06:30N 54°51' W 005°48'0 0.0
2019-Mar-19 06:00N 54°51' W 005°48'5 8.9
2019-Mar-19 05:30N 54°53' W 005°41'917.6
2019-Mar-19 05:01N 54°57' W 005°28'918.1
2019-Mar-19 04:30N 55°01' W 005°13'713.3
2019-Mar-19 04:00N 54°59' W 005°02'1 1.9
2019-Mar-19 03:23N 54°58' W 005°01'0 0.0
2019-Mar-19 02:59N 54°58' W 005°01'0 0.0
2019-Mar-19 02:29N 54°58' W 005°01'0 0.0
2019-Mar-19 02:00N 54°58' W 005°01'510.0
2019-Mar-19 01:30N 55°02' W 005°07'918.2
2019-Mar-19 01:01N 54°58' W 005°21'917.7
2019-Mar-19 00:31N 54°54' W 005°35'815.9
2019-Mar-19 00:01N 54°51' W 005°48'0 0.3
2019-Mar-18 23:28N 54°51' W 005°48'0 0.0
2019-Mar-18 22:58N 54°51' W 005°48'0 0.0
2019-Mar-18 22:28N 54°51' W 005°48'0 0.0
2019-Mar-18 21:58N 54°51' W 005°48'3 6.0
2019-Mar-18 21:30N 54°53' W 005°44'917.9
2019-Mar-18 21:00N 54°56' W 005°30'917.5
2019-Mar-18 20:31N 54°60' W 005°16'813.9
2019-Mar-18 19:57N 54°59' W 005°03'2 2.5
2019-Mar-18 19:16N 54°58' W 005°01'0 0.0
2019-Mar-18 18:43N 54°58' W 005°01'0 0.0
2019-Mar-18 18:29N 54°58' W 005°01'5 9.7
2019-Mar-18 17:59N 55°01' W 005°07'816.7
2019-Mar-18 17:30N 54°58' W 005°19'918.3
2019-Mar-18 17:00N 54°55' W 005°34'917.1
2019-Mar-18 16:30N 54°51' W 005°48'0 0.7
2019-Mar-18 16:00N 54°51' W 005°48'0 0.0
2019-Mar-18 15:30N 54°51' W 005°48'4 8.5
2019-Mar-18 15:00N 54°53' W 005°42'917.5
2019-Mar-18 14:30N 54°57' W 005°28'916.9
2019-Mar-18 14:00N 55°01' W 005°15'713.9
2019-Mar-18 13:30N 54°59' W 005°03'2 3.2
2019-Mar-18 12:58N 54°58' W 005°01'0 0.0
2019-Mar-18 12:28N 54°58' W 005°01'5 9.9
2019-Mar-18 11:58N 55°02' W 005°07'818.1
2019-Mar-18 11:31N 54°58' W 005°20'917.7
2019-Mar-18 11:01N 54°55' W 005°34'917.0
2019-Mar-18 10:31N 54°52' W 005°48'1 1.5
2019-Mar-18 10:00N 54°51' W 005°48'0 0.0
2019-Mar-18 09:30N 54°51' W 005°48'4 7.3
2019-Mar-18 09:01N 54°53' W 005°43'917.8
2019-Mar-18 08:31N 54°57' W 005°29'917.5
2019-Mar-18 08:01N 55°00' W 005°15'713.8
2019-Mar-18 07:30N 54°59' W 005°03'2 2.8
2019-Mar-18 06:52N 54°58' W 005°01'0 0.0
2019-Mar-18 06:28N 54°58' W 005°01'0 0.0
2019-Mar-18 06:00N 54°58' W 005°01'510.1
2019-Mar-18 05:30N 55°02' W 005°07'816.8
2019-Mar-18 05:01N 54°58' W 005°20'918.0
2019-Mar-18 04:31N 54°54' W 005°34'917.0
2019-Mar-18 04:00N 54°51' W 005°48'0 0.4
2019-Mar-18 03:27N 54°51' W 005°48'0 0.0
2019-Mar-18 02:57N 54°51' W 005°48'0 0.0
2019-Mar-18 02:30N 54°51' W 005°48'0 0.0
2019-Mar-18 02:00N 54°51' W 005°48'4 7.3
2019-Mar-18 01:31N 54°53' W 005°43'917.1
2019-Mar-18 01:00N 54°56' W 005°29'817.0
2019-Mar-18 00:31N 55°00' W 005°16'814.2
2019-Mar-17 23:58N 54°59' W 005°03'2 3.9
2019-Mar-17 23:29N 54°58' W 005°01'0 0.0
2019-Mar-17 22:56N 54°58' W 005°01'0 0.0
2019-Mar-17 22:29N 54°58' W 005°01'0 0.0
2019-Mar-17 21:59N 54°58' W 005°01'5 7.9
2019-Mar-17 21:21N 55°02' W 005°07'719.7
2019-Mar-17 21:00N 54°59' W 005°18'1019.8
2019-Mar-17 20:30N 54°55' W 005°33'918.2
2019-Mar-17 20:00N 54°51' W 005°48'0 0.3
2019-Mar-17 19:30N 54°51' W 005°48'0 0.0
2019-Mar-17 19:00N 54°51' W 005°48'0 0.0
2019-Mar-17 18:30N 54°51' W 005°48'3 6.5
2019-Mar-17 18:01N 54°53' W 005°43'1019.7
2019-Mar-17 17:31N 54°57' W 005°28'1020.1
2019-Mar-17 17:00N 55°01' W 005°12'714.2
2019-Mar-17 16:30N 54°58' W 005°01'0 0.5
2019-Mar-17 16:00N 54°58' W 005°01'0 0.0
2019-Mar-17 15:30N 54°58' W 005°01'5 9.5
2019-Mar-17 14:59N 55°01' W 005°07'816.5
2019-Mar-17 14:30N 54°58' W 005°19'917.5
2019-Mar-17 14:00N 54°55' W 005°33'917.5
2019-Mar-17 13:30N 54°52' W 005°47'1 2.0
2019-Mar-17 13:00N 54°51' W 005°48'0 0.0
2019-Mar-17 12:30N 54°51' W 005°48'0 0.0
2019-Mar-17 12:00N 54°51' W 005°48'0 0.0
2019-Mar-17 11:30N 54°51' W 005°48'0 0.0
2019-Mar-17 11:00N 54°51' W 005°48'0 0.0
2019-Mar-17 10:30N 54°51' W 005°48'0 0.0
2019-Mar-17 10:00N 54°51' W 005°48'0 0.0
2019-Mar-17 09:30N 54°51' W 005°48'611.6
2019-Mar-17 09:00N 54°54' W 005°39'917.1
2019-Mar-17 08:30N 54°58' W 005°26'816.6
2019-Mar-17 08:00N 55°01' W 005°13'713.4
2019-Mar-17 07:30N 54°58' W 005°02'1 1.5
2019-Mar-17 06:55N 54°58' W 005°01'0 0.0
2019-Mar-17 05:07N 54°58' W 005°01'0 0.0
2019-Mar-17 04:58N 54°58' W 005°01'0 0.0
2019-Mar-17 04:28N 54°58' W 005°01'0 0.0
2019-Mar-17 03:49N 54°58' W 005°01'0 0.0
2019-Mar-17 03:10N 54°58' W 005°01'0 0.0
2019-Mar-17 02:55N 54°58' W 005°01'0 0.0
2019-Mar-17 02:22N 54°58' W 005°01'0 0.0
2019-Mar-17 01:58N 54°58' W 005°01'0 0.0
2019-Mar-17 01:28N 54°58' W 005°01'0 0.0
2019-Mar-17 00:55N 54°58' W 005°01'0 0.0
2019-Mar-17 00:25N 54°58' W 005°01'0 0.0
2019-Mar-16 23:55N 54°58' W 005°01'0 0.0
2019-Mar-16 23:01N 54°58' W 005°01'0 0.0
2019-Mar-16 22:37N 54°58' W 005°01'0 0.0
2019-Mar-16 22:25N 54°58' W 005°01'0 0.0
2019-Mar-16 22:00N 54°58' W 005°01'510.7
2019-Mar-16 21:31N 55°02' W 005°07'917.5
2019-Mar-16 21:01N 54°58' W 005°21'917.2
2019-Mar-16 20:31N 54°55' W 005°35'816.2
2019-Mar-16 20:00N 54°51' W 005°48'0 0.3
2019-Mar-16 19:29N 54°51' W 005°48'0 0.0
2019-Mar-16 18:59N 54°51' W 005°48'0 0.0
2019-Mar-16 18:30N 54°51' W 005°48'510.1
2019-Mar-16 18:00N 54°53' W 005°41'816.6
2019-Mar-16 17:30N 54°57' W 005°28'816.4
2019-Mar-16 17:00N 55°01' W 005°15'713.4
2019-Mar-16 16:29N 54°59' W 005°03'2 2.7
2019-Mar-16 15:52N 54°58' W 005°01'0 0.0
2019-Mar-16 15:30N 54°58' W 005°01'510.1
2019-Mar-16 14:58N 55°02' W 005°08'816.9
2019-Mar-16 14:30N 54°58' W 005°20'918.0
2019-Mar-16 14:00N 54°54' W 005°34'816.8
2019-Mar-16 13:30N 54°51' W 005°48'0 0.5
2019-Mar-16 12:58N 54°51' W 005°48'0 0.0
2019-Mar-16 12:29N 54°51' W 005°48'510.8
2019-Mar-16 12:00N 54°54' W 005°40'1019.3
2019-Mar-16 11:30N 54°58' W 005°26'816.7
2019-Mar-16 11:00N 55°01' W 005°12'713.9
2019-Mar-16 10:30N 54°58' W 005°01'0 0.3
2019-Mar-16 10:00N 54°58' W 005°01'0 0.0
2019-Mar-16 09:30N 54°58' W 005°01'5 8.9
2019-Mar-16 08:56N 55°02' W 005°06'818.3
2019-Mar-16 08:31N 54°59' W 005°19'917.9
2019-Mar-16 08:01N 54°55' W 005°33'917.7
2019-Mar-16 07:31N 54°52' W 005°47'1 1.6
2019-Mar-16 06:58N 54°51' W 005°48'0 0.0
2019-Mar-16 06:28N 54°51' W 005°48'0 0.0
2019-Mar-16 05:59N 54°51' W 005°48'510.1
2019-Mar-16 05:30N 54°54' W 005°41'918.1
2019-Mar-16 05:00N 54°58' W 005°27'917.6
2019-Mar-16 04:30N 55°01' W 005°13'713.7
2019-Mar-16 04:00N 54°58' W 005°02'1 1.2
2019-Mar-16 03:22N 54°58' W 005°01'0 0.0
2019-Mar-16 02:46N 54°58' W 005°01'0 0.0
2019-Mar-16 02:28N 54°58' W 005°01'0 0.0
2019-Mar-16 01:59N 54°58' W 005°01'5 8.3
2019-Mar-16 01:23N 55°02' W 005°07'717.6
2019-Mar-16 01:00N 54°59' W 005°17'918.4
2019-Mar-16 00:30N 54°55' W 005°32'918.7
2019-Mar-16 00:00N 54°52' W 005°47'1 2.1
2019-Mar-15 23:30N 54°51' W 005°48'0 0.0
2019-Mar-15 23:00N 54°51' W 005°48'0 0.0
2019-Mar-15 22:30N 54°51' W 005°48'0 0.0
2019-Mar-15 22:00N 54°51' W 005°48'611.2
2019-Mar-15 21:30N 54°54' W 005°40'917.5
2019-Mar-15 21:00N 54°59' W 005°28'816.8
2019-Mar-15 20:30N 55°01' W 005°14'713.3
2019-Mar-15 20:00N 54°59' W 005°03'2 3.0
2019-Mar-15 19:27N 54°58' W 005°01'0 0.0
2019-Mar-15 19:00N 54°58' W 005°01'0 0.0
2019-Mar-15 18:30N 54°58' W 005°01'511.3
2019-Mar-15 18:00N 55°01' W 005°08'1121.7
2019-Mar-15 17:30N 54°57' W 005°25'1122.1
2019-Mar-15 17:00N 54°53' W 005°43'3 6.6
2019-Mar-15 16:29N 54°51' W 005°48'0 0.0
2019-Mar-15 15:59N 54°51' W 005°48'510.1
2019-Mar-15 15:30N 54°53' W 005°41'1020.8
2019-Mar-15 15:00N 54°58' W 005°25'1020.0
2019-Mar-15 14:30N 55°02' W 005°08'611.5
2019-Mar-15 14:00N 54°58' W 005°01'0 0.0
2019-Mar-15 13:29N 54°58' W 005°01'0 0.0
2019-Mar-15 13:00N 54°58' W 005°01'5 9.5
2019-Mar-15 12:29N 55°01' W 005°07'1020.9
2019-Mar-15 12:00N 54°58' W 005°23'1122.3
2019-Mar-15 11:30N 54°53' W 005°40'5 5.3
2019-Mar-15 10:35N 54°51' W 005°48'0 0.0
2019-Mar-15 10:23N 54°51' W 005°48'0 0.4
2019-Mar-15 10:00N 54°51' W 005°48'917.5
2019-Mar-15 09:30N 54°55' W 005°35'1020.8
2019-Mar-15 09:00N 55°00' W 005°19'916.3
2019-Mar-15 08:28N 54°59' W 005°03'2 3.5
2019-Mar-15 07:53N 54°58' W 005°01'0 0.0
2019-Mar-15 07:23N 54°58' W 005°01'0 0.0
2019-Mar-15 06:59N 54°58' W 005°01'0 0.0
2019-Mar-15 06:30N 54°58' W 005°01'510.6
2019-Mar-15 06:00N 55°02' W 005°07'1121.5
2019-Mar-15 05:31N 54°57' W 005°24'1122.0
2019-Mar-15 05:00N 54°53' W 005°42'4 8.1
2019-Mar-15 04:30N 54°51' W 005°48'0 0.0
2019-Mar-15 04:00N 54°51' W 005°48'0 0.0
2019-Mar-15 03:27N 54°51' W 005°48'0 0.0
2019-Mar-15 03:00N 54°51' W 005°48'612.2
2019-Mar-15 02:30N 54°54' W 005°39'1019.3
2019-Mar-15 02:00N 54°58' W 005°24'1018.9
2019-Mar-15 01:30N 55°02' W 005°08'612.5
2019-Mar-15 01:00N 54°58' W 005°01'0 0.0
2019-Mar-15 00:21N 54°58' W 005°01'0 0.0
2019-Mar-14 23:57N 54°58' W 005°01'0 0.0
2019-Mar-14 23:30N 54°58' W 005°01'0 0.0
2019-Mar-14 22:57N 54°58' W 005°01'5 8.3
2019-Mar-14 22:20N 55°02' W 005°07'617.2
2019-Mar-14 22:01N 54°60' W 005°16'917.8
2019-Mar-14 21:31N 54°56' W 005°30'917.9
2019-Mar-14 21:01N 54°52' W 005°44'3 4.8
2019-Mar-14 20:29N 54°51' W 005°48'0 0.0
2019-Mar-14 19:59N 54°51' W 005°48'0 0.0
2019-Mar-14 19:29N 54°51' W 005°48'0 0.7
2019-Mar-14 19:00N 54°51' W 005°48'815.9
2019-Mar-14 18:31N 54°55' W 005°36'816.8
2019-Mar-14 18:01N 54°59' W 005°23'816.1
2019-Mar-14 17:30N 55°02' W 005°09'612.4
2019-Mar-14 17:00N 54°58' W 005°01'0 0.0
2019-Mar-14 16:20N 54°58' W 005°01'0 0.0
2019-Mar-14 15:56N 54°58' W 005°01'0 0.0
2019-Mar-14 15:26N 54°58' W 005°01'510.8
2019-Mar-14 14:58N 55°02' W 005°07'919.0
2019-Mar-14 14:30N 54°59' W 005°21'1020.0
2019-Mar-14 14:00N 54°55' W 005°37'714.7
2019-Mar-14 13:30N 54°51' W 005°48'0 0.0
2019-Mar-14 12:58N 54°51' W 005°48'0 0.0
2019-Mar-14 12:28N 54°51' W 005°48'0 0.0
2019-Mar-14 11:58N 54°51' W 005°48'1 2.8
2019-Mar-14 11:29N 54°52' W 005°47'1020.2
2019-Mar-14 11:00N 54°57' W 005°32'1020.0
2019-Mar-14 10:30N 55°00' W 005°16'815.2
2019-Mar-14 10:00N 54°59' W 005°03'2 3.6
2019-Mar-14 09:29N 54°58' W 005°01'0 0.0
2019-Mar-14 08:59N 54°58' W 005°01'0 0.0
2019-Mar-14 08:11N 54°58' W 005°01'0 0.0
2019-Mar-14 07:59N 54°58' W 005°01'0 0.0
2019-Mar-14 07:30N 54°58' W 005°01'510.3
2019-Mar-14 07:00N 55°02' W 005°07'1021.1
2019-Mar-14 06:31N 54°57' W 005°23'1121.3
2019-Mar-14 06:00N 54°53' W 005°40'5 9.6
2019-Mar-14 05:30N 54°51' W 005°48'0 0.0
2019-Mar-14 05:00N 54°51' W 005°48'0 0.0
2019-Mar-14 04:30N 54°51' W 005°48'0 0.0
2019-Mar-14 04:00N 54°51' W 005°48'0 0.0
2019-Mar-14 03:30N 54°51' W 005°48'2 4.5
2019-Mar-14 03:01N 54°52' W 005°45'1121.1
2019-Mar-14 02:31N 54°57' W 005°28'1121.1
2019-Mar-14 02:00N 55°01' W 005°11'714.2
2019-Mar-14 01:30N 54°58' W 005°01'0 0.0
2019-Mar-14 00:26N 54°58' W 005°01'0 0.0
2019-Mar-13 23:56N 54°58' W 005°01'0 0.0
2019-Mar-13 23:26N 54°58' W 005°01'0 0.0
2019-Mar-13 22:59N 54°58' W 005°01'0 0.6
2019-Mar-13 22:30N 54°58' W 005°01'813.6
2019-Mar-13 21:55N 55°05' W 005°07'4 8.2
2019-Mar-13 21:28N 55°02' W 005°07'818.1
2019-Mar-13 21:00N 54°58' W 005°20'1020.4
2019-Mar-13 20:30N 54°54' W 005°36'714.8
2019-Mar-13 20:00N 54°51' W 005°48'0 0.1
2019-Mar-13 19:25N 54°51' W 005°48'0 0.0
2019-Mar-13 18:52N 54°51' W 005°48'0 0.0
2019-Mar-13 18:25N 54°51' W 005°48'2 5.6
2019-Mar-13 18:00N 54°53' W 005°45'1019.6
2019-Mar-13 17:30N 54°58' W 005°31'1019.1
2019-Mar-13 17:00N 55°02' W 005°16'814.2
2019-Mar-13 16:27N 54°59' W 005°03'2 2.3
2019-Mar-13 15:47N 54°58' W 005°01'0 0.0
2019-Mar-13 15:26N 54°58' W 005°01'0 0.0
2019-Mar-13 14:56N 54°58' W 005°01'0 0.0
2019-Mar-13 14:30N 54°58' W 005°01'5 9.8
2019-Mar-13 13:58N 55°02' W 005°07'920.2
2019-Mar-13 13:30N 54°59' W 005°22'1121.1
2019-Mar-13 13:00N 54°54' W 005°38'612.5
2019-Mar-13 12:30N 54°51' W 005°48'0 0.0
2019-Mar-13 11:55N 54°51' W 005°48'0 0.0
2019-Mar-13 11:25N 54°51' W 005°48'0 0.0
2019-Mar-13 10:55N 54°51' W 005°48'0 0.0
2019-Mar-13 10:25N 54°51' W 005°48'0 0.0
2019-Mar-13 09:55N 54°51' W 005°48'0 0.0
2019-Mar-13 09:25N 54°51' W 005°48'0 0.0
2019-Mar-13 08:55N 54°51' W 005°48'0 0.0
2019-Mar-13 08:25N 54°51' W 005°48'0 0.0
2019-Mar-13 07:55N 54°51' W 005°48'0 0.0
2019-Mar-13 07:25N 54°51' W 005°48'0 0.0
2019-Mar-13 06:55N 54°51' W 005°48'0 0.0
2019-Mar-13 06:25N 54°51' W 005°48'0 0.0
2019-Mar-13 05:55N 54°51' W 005°48'0 0.0
2019-Mar-13 05:25N 54°51' W 005°48'0 0.0
2019-Mar-13 04:55N 54°51' W 005°48'0 0.0
2019-Mar-13 04:25N 54°51' W 005°48'0 0.0
2019-Mar-13 03:55N 54°51' W 005°48'0 0.0
2019-Mar-13 03:25N 54°51' W 005°48'0 0.0
2019-Mar-13 02:55N 54°51' W 005°48'0 0.0
2019-Mar-13 01:55N 54°51' W 005°48'0 0.0
2019-Mar-13 01:25N 54°51' W 005°48'0 0.0
2019-Mar-13 00:55N 54°51' W 005°48'0 0.0
2019-Mar-13 00:25N 54°51' W 005°48'0 0.0
2019-Mar-12 23:55N 54°51' W 005°48'0 0.0
2019-Mar-12 23:25N 54°51' W 005°48'0 0.0
2019-Mar-12 22:55N 54°51' W 005°48'0 0.0
2019-Mar-12 22:25N 54°51' W 005°48'0 0.0
2019-Mar-12 21:55N 54°51' W 005°48'0 0.0
2019-Mar-12 21:25N 54°51' W 005°48'0 0.0
2019-Mar-12 20:55N 54°51' W 005°48'0 0.0
2019-Mar-12 20:25N 54°51' W 005°48'0 0.0
2019-Mar-12 19:49N 54°51' W 005°48'0 0.0
2019-Mar-12 19:30N 54°51' W 005°48'0 0.0
2019-Mar-12 19:00N 54°51' W 005°48'0 0.0
2019-Mar-12 18:30N 54°51' W 005°48'0 0.0
2019-Mar-12 18:00N 54°51' W 005°48'0 0.0
2019-Mar-12 17:30N 54°51' W 005°48'0 0.0
2019-Mar-12 17:00N 54°51' W 005°48'0 0.0
2019-Mar-12 16:30N 54°51' W 005°48'0 0.0
2019-Mar-12 16:00N 54°51' W 005°48'1 2.2
2019-Mar-12 15:30N 54°52' W 005°48'4 8.0
2019-Mar-12 15:00N 54°54' W 005°41'1019.5
2019-Mar-12 14:30N 54°58' W 005°26'815.8
2019-Mar-12 14:00N 55°01' W 005°13'613.0
2019-Mar-12 13:30N 54°59' W 005°02'1 2.7
2019-Mar-12 12:59N 54°58' W 005°01'  
Track history (hours):
 
Tides and Currents Weather Stations Pressure Air Temp Water Temp Dewpoint Dewpoint Depression Visibility Wind Speed Wind Dir Waves Ship Positions

European Highlander

Operator: P&O Irish Sea Ltd

Last reported at 2019-Mar-22 12:30 UTC. Time now 2019-Mar-22 12:53 UTC.
Position N 54°58' W 005°01'.

Length 161 m; draft 5.5 m.

Type: Passenger vessel. MMSI: 311404000.

Date/timePositionNaut miles runAvg speedWind from/ knotsBaromVisibWave heightAir tempDewpointWater temp
2019-Mar-22 12:30N 54°58' W 005°01'510.1
2019-Mar-22 11:59N 55°02' W 005°07'817.8
2019-Mar-22 11:31N 54°57' W 005°19'917.7
2019-Mar-22 11:01N 54°55' W 005°34'917.0
2019-Mar-22 10:30N 54°51' W 005°48'0 0.3
2019-Mar-22 09:58N 54°51' W 005°48'0 0.0
2019-Mar-22 09:25N 54°51' W 005°48'3 6.4
2019-Mar-22 09:01N 54°53' W 005°44'1019.6
2019-Mar-22 08:30N 54°57' W 005°29'1019.9
2019-Mar-22 08:01N 55°01' W 005°13'713.7
2019-Mar-22 07:30N 54°58' W 005°02'1 1.6
2019-Mar-22 06:53N 54°58' W 005°01'0 0.0
2019-Mar-22 06:20N 54°58' W 005°01'0 0.0
2019-Mar-22 06:00N 54°58' W 005°01'5 9.8
2019-Mar-22 05:29N 55°02' W 005°07'916.7
2019-Mar-22 04:58N 54°58' W 005°21'817.2
2019-Mar-22 04:30N 54°55' W 005°33'917.4
2019-Mar-22 04:00N 54°52' W 005°47'1 1.9
2019-Mar-22 03:29N 54°51' W 005°48'0 0.0
2019-Mar-22 02:59N 54°51' W 005°48'0 0.0
2019-Mar-22 02:29N 54°51' W 005°48'0 0.0
2019-Mar-22 02:00N 54°51' W 005°48'4 9.0
2019-Mar-22 01:30N 54°53' W 005°42'918.0
2019-Mar-22 01:00N 54°57' W 005°28'917.1
2019-Mar-22 00:30N 55°01' W 005°14'713.8
2019-Mar-22 00:00N 54°59' W 005°02'1 2.5
2019-Mar-21 23:28N 54°58' W 005°01'0 0.0
2019-Mar-21 22:40N 54°58' W 005°01'0 0.0
2019-Mar-21 22:22N 54°58' W 005°01'0 0.0
2019-Mar-21 22:00N 54°58' W 005°01'5 9.7
2019-Mar-21 21:30N 55°02' W 005°07'816.3
2019-Mar-21 21:00N 54°59' W 005°19'917.5
2019-Mar-21 20:30N 54°55' W 005°33'917.9
2019-Mar-21 20:01N 54°51' W 005°48'1 1.3
2019-Mar-21 19:31N 54°51' W 005°48'0 0.0
2019-Mar-21 19:01N 54°51' W 005°48'0 0.0
2019-Mar-21 18:30N 54°51' W 005°48'510.0
2019-Mar-21 18:01N 54°53' W 005°40'1019.8
2019-Mar-21 17:31N 54°58' W 005°25'1020.3
2019-Mar-21 17:00N 55°01' W 005°08'611.5
2019-Mar-21 16:30N 54°58' W 005°01'0 0.0
2019-Mar-21 15:58N 54°58' W 005°01'0 0.0
2019-Mar-21 15:30N 54°58' W 005°01'5 9.1
2019-Mar-21 14:57N 55°01' W 005°07'920.3
2019-Mar-21 14:30N 54°58' W 005°21'1019.8
2019-Mar-21 14:00N 54°54' W 005°37'711.9
2019-Mar-21 13:25N 54°51' W 005°48'0 0.0
2019-Mar-21 12:58N 54°51' W 005°48'0 0.0
2019-Mar-21 12:30N 54°51' W 005°48'612.4
2019-Mar-21 12:00N 54°54' W 005°39'918.2
2019-Mar-21 11:30N 54°58' W 005°24'917.6
2019-Mar-21 11:00N 55°01' W 005°10'613.0
2019-Mar-21 10:30N 54°58' W 005°01'0 0.1
2019-Mar-21 09:59N 54°58' W 005°01'0 0.0
2019-Mar-21 09:30N 54°58' W 005°01'5 8.7
2019-Mar-21 08:55N 55°02' W 005°07'716.4
2019-Mar-21 08:30N 54°59' W 005°18'917.5
2019-Mar-21 08:00N 54°55' W 005°31'1018.8
2019-Mar-21 07:29N 54°52' W 005°47'1 1.9
2019-Mar-21 06:59N 54°51' W 005°48'0 0.0
2019-Mar-21 06:29N 54°51' W 005°48'0 0.0
2019-Mar-21 06:00N 54°51' W 005°48'510.2
2019-Mar-21 05:30N 54°54' W 005°41'917.5
2019-Mar-21 05:00N 54°58' W 005°27'917.7
2019-Mar-21 04:30N 55°01' W 005°13'612.0
2019-Mar-21 04:00N 54°59' W 005°03'2 3.2
2019-Mar-21 03:30N 54°58' W 005°01'0 0.0
2019-Mar-21 03:00N 54°58' W 005°01'0 0.0
2019-Mar-21 02:30N 54°58' W 005°01'0 0.0
2019-Mar-21 01:57N 54°58' W 005°01'5 8.6
2019-Mar-21 01:22N 55°02' W 005°06'720.7
2019-Mar-21 01:01N 54°59' W 005°18'1020.2
2019-Mar-21 00:30N 54°55' W 005°35'817.0
2019-Mar-21 00:01N 54°51' W 005°48'0 0.3
2019-Mar-20 23:30N 54°51' W 005°48'0 0.0
2019-Mar-20 23:00N 54°51' W 005°48'0 0.0
2019-Mar-20 22:30N 54°51' W 005°48'0 0.0
2019-Mar-20 22:00N 54°51' W 005°48'4 8.6
2019-Mar-20 21:31N 54°53' W 005°42'917.0
2019-Mar-20 21:01N 54°57' W 005°29'917.1
2019-Mar-20 20:31N 55°00' W 005°15'713.5
2019-Mar-20 20:00N 54°59' W 005°03'2 3.3
2019-Mar-20 19:27N 54°58' W 005°01'0 0.0
2019-Mar-20 19:00N 54°58' W 005°01'0 0.0
2019-Mar-20 18:30N 54°58' W 005°01'5 9.7
2019-Mar-20 17:59N 55°02' W 005°07'816.3
2019-Mar-20 17:30N 54°58' W 005°19'918.2
2019-Mar-20 17:00N 54°55' W 005°34'917.2
2019-Mar-20 16:30N 54°51' W 005°48'1 1.1
2019-Mar-20 16:00N 54°51' W 005°48'0 0.0
2019-Mar-20 15:30N 54°51' W 005°48'4 8.7
2019-Mar-20 15:00N 54°53' W 005°42'917.7
2019-Mar-20 14:30N 54°58' W 005°28'917.3
2019-Mar-20 14:00N 55°01' W 005°14'713.8
2019-Mar-20 13:30N 54°59' W 005°03'1 2.0
2019-Mar-20 12:46N 54°58' W 005°01'0 0.0
2019-Mar-20 12:30N 54°58' W 005°01'5 9.7
2019-Mar-20 11:59N 55°02' W 005°07'918.5
2019-Mar-20 11:30N 54°58' W 005°21'917.9
2019-Mar-20 11:01N 54°54' W 005°35'816.0
2019-Mar-20 10:30N 54°51' W 005°48'0 0.2
2019-Mar-20 10:00N 54°51' W 005°48'0 0.0
2019-Mar-20 09:30N 54°51' W 005°48'612.4
2019-Mar-20 09:01N 54°54' W 005°39'1121.4
2019-Mar-20 08:31N 54°59' W 005°22'1116.6
2019-Mar-20 07:51N 54°59' W 005°03'2 5.2
2019-Mar-20 07:30N 54°58' W 005°01'0 0.0
2019-Mar-20 06:54N 54°58' W 005°01'0 0.0
2019-Mar-20 06:27N 54°58' W 005°01'0 0.0
2019-Mar-20 06:00N 54°58' W 005°01'5 9.8
2019-Mar-20 05:29N 55°02' W 005°07'816.5
2019-Mar-20 05:00N 54°58' W 005°19'918.3
2019-Mar-20 04:30N 54°55' W 005°34'917.0
2019-Mar-20 04:00N 54°51' W 005°48'0 0.4
2019-Mar-20 03:30N 54°51' W 005°48'0 0.0
2019-Mar-20 03:00N 54°51' W 005°48'0 0.0
2019-Mar-20 02:30N 54°51' W 005°48'0 0.0
2019-Mar-20 02:00N 54°51' W 005°48'4 8.4
2019-Mar-20 01:30N 54°53' W 005°42'918.0
2019-Mar-20 01:00N 54°57' W 005°28'917.3
2019-Mar-20 00:30N 55°01' W 005°15'714.4
2019-Mar-20 00:00N 54°59' W 005°02'1 1.5
2019-Mar-19 23:05N 54°58' W 005°01'0 0.0
2019-Mar-19 22:29N 54°58' W 005°01'0 0.1
2019-Mar-19 22:00N 54°58' W 005°01'713.3
2019-Mar-19 21:30N 55°01' W 005°11'918.5
2019-Mar-19 21:00N 54°57' W 005°25'1020.4
2019-Mar-19 20:30N 54°53' W 005°42'4 8.6
2019-Mar-19 20:01N 54°51' W 005°48'0 0.0
2019-Mar-19 19:30N 54°51' W 005°48'0 0.0
2019-Mar-19 19:00N 54°51' W 005°48'0 0.0
2019-Mar-19 18:31N 54°51' W 005°48'3 6.4
2019-Mar-19 18:01N 54°53' W 005°43'917.7
2019-Mar-19 17:31N 54°57' W 005°30'918.9
2019-Mar-19 17:01N 55°01' W 005°15'714.4
2019-Mar-19 16:30N 54°59' W 005°02'1 2.6
2019-Mar-19 15:58N 54°58' W 005°01'0 0.0
2019-Mar-19 15:28N 54°58' W 005°01'5 9.1
2019-Mar-19 14:56N 55°01' W 005°07'717.4
2019-Mar-19 14:31N 54°59' W 005°18'918.0
2019-Mar-19 14:00N 54°55' W 005°33'917.5
2019-Mar-19 13:30N 54°52' W 005°47'1 2.7
2019-Mar-19 13:00N 54°51' W 005°48'0 0.0
2019-Mar-19 12:30N 54°51' W 005°48'4 8.2
2019-Mar-19 12:00N 54°53' W 005°42'917.9
2019-Mar-19 11:30N 54°58' W 005°29'917.2
2019-Mar-19 11:00N 55°02' W 005°15'715.0
2019-Mar-19 10:30N 54°59' W 005°03'2 1.6
2019-Mar-19 09:26N 54°58' W 005°01'510.1
2019-Mar-19 08:56N 55°02' W 005°07'717.7
2019-Mar-19 08:31N 55°01' W 005°20'918.1
2019-Mar-19 08:01N 54°56' W 005°33'918.4
2019-Mar-19 07:30N 54°52' W 005°47'1 2.1
2019-Mar-19 07:00N 54°51' W 005°48'0 0.0
2019-Mar-19 06:30N 54°51' W 005°48'0 0.0
2019-Mar-19 06:00N 54°51' W 005°48'5 8.9
2019-Mar-19 05:30N 54°53' W 005°41'917.6
2019-Mar-19 05:01N 54°57' W 005°28'918.1
2019-Mar-19 04:30N 55°01' W 005°13'713.3
2019-Mar-19 04:00N 54°59' W 005°02'1 1.9
2019-Mar-19 03:23N 54°58' W 005°01'0 0.0
2019-Mar-19 02:59N 54°58' W 005°01'0 0.0
2019-Mar-19 02:29N 54°58' W 005°01'0 0.0
2019-Mar-19 02:00N 54°58' W 005°01'510.0
2019-Mar-19 01:30N 55°02' W 005°07'918.2
2019-Mar-19 01:01N 54°58' W 005°21'917.7
2019-Mar-19 00:31N 54°54' W 005°35'815.9
2019-Mar-19 00:01N 54°51' W 005°48'0 0.3
2019-Mar-18 23:28N 54°51' W 005°48'0 0.0
2019-Mar-18 22:58N 54°51' W 005°48'0 0.0
2019-Mar-18 22:28N 54°51' W 005°48'0 0.0
2019-Mar-18 21:58N 54°51' W 005°48'3 6.0
2019-Mar-18 21:30N 54°53' W 005°44'917.9
2019-Mar-18 21:00N 54°56' W 005°30'917.5
2019-Mar-18 20:31N 54°60' W 005°16'813.9
2019-Mar-18 19:57N 54°59' W 005°03'2 2.5
2019-Mar-18 19:16N 54°58' W 005°01'0 0.0
2019-Mar-18 18:43N 54°58' W 005°01'0 0.0
2019-Mar-18 18:29N 54°58' W 005°01'5 9.7
2019-Mar-18 17:59N 55°01' W 005°07'816.7
2019-Mar-18 17:30N 54°58' W 005°19'918.3
2019-Mar-18 17:00N 54°55' W 005°34'917.1
2019-Mar-18 16:30N 54°51' W 005°48'0 0.7
2019-Mar-18 16:00N 54°51' W 005°48'0 0.0
2019-Mar-18 15:30N 54°51' W 005°48'4 8.5
2019-Mar-18 15:00N 54°53' W 005°42'917.5
2019-Mar-18 14:30N 54°57' W 005°28'916.9
2019-Mar-18 14:00N 55°01' W 005°15'713.9
2019-Mar-18 13:30N 54°59' W 005°03'2 3.2
2019-Mar-18 12:58N 54°58' W 005°01'0 0.0
2019-Mar-18 12:28N 54°58' W 005°01'5 9.9
2019-Mar-18 11:58N 55°02' W 005°07'818.1
2019-Mar-18 11:31N 54°58' W 005°20'917.7
2019-Mar-18 11:01N 54°55' W 005°34'917.0
2019-Mar-18 10:31N 54°52' W 005°48'1 1.5
2019-Mar-18 10:00N 54°51' W 005°48'0 0.0
2019-Mar-18 09:30N 54°51' W 005°48'4 7.3
2019-Mar-18 09:01N 54°53' W 005°43'917.8
2019-Mar-18 08:31N 54°57' W 005°29'917.5
2019-Mar-18 08:01N 55°00' W 005°15'713.8
2019-Mar-18 07:30N 54°59' W 005°03'2 2.8
2019-Mar-18 06:52N 54°58' W 005°01'0 0.0
2019-Mar-18 06:28N 54°58' W 005°01'0 0.0
2019-Mar-18 06:00N 54°58' W 005°01'510.1
2019-Mar-18 05:30N 55°02' W 005°07'816.8
2019-Mar-18 05:01N 54°58' W 005°20'918.0
2019-Mar-18 04:31N 54°54' W 005°34'917.0
2019-Mar-18 04:00N 54°51' W 005°48'0 0.4
2019-Mar-18 03:27N 54°51' W 005°48'0 0.0
2019-Mar-18 02:57N 54°51' W 005°48'0 0.0
2019-Mar-18 02:30N 54°51' W 005°48'0 0.0
2019-Mar-18 02:00N 54°51' W 005°48'4 7.3
2019-Mar-18 01:31N 54°53' W 005°43'917.1
2019-Mar-18 01:00N 54°56' W 005°29'817.0
2019-Mar-18 00:31N 55°00' W 005°16'814.2
2019-Mar-17 23:58N 54°59' W 005°03'2 3.9
2019-Mar-17 23:29N 54°58' W 005°01'0 0.0
2019-Mar-17 22:56N 54°58' W 005°01'0 0.0
2019-Mar-17 22:29N 54°58' W 005°01'0 0.0
2019-Mar-17 21:59N 54°58' W 005°01'5 7.9
2019-Mar-17 21:21N 55°02' W 005°07'719.7
2019-Mar-17 21:00N 54°59' W 005°18'1019.8
2019-Mar-17 20:30N 54°55' W 005°33'918.2
2019-Mar-17 20:00N 54°51' W 005°48'0 0.3
2019-Mar-17 19:30N 54°51' W 005°48'0 0.0
2019-Mar-17 19:00N 54°51' W 005°48'0 0.0
2019-Mar-17 18:30N 54°51' W 005°48'3 6.5
2019-Mar-17 18:01N 54°53' W 005°43'1019.7
2019-Mar-17 17:31N 54°57' W 005°28'1020.1
2019-Mar-17 17:00N 55°01' W 005°12'714.2
2019-Mar-17 16:30N 54°58' W 005°01'0 0.5
2019-Mar-17 16:00N 54°58' W 005°01'0 0.0
2019-Mar-17 15:30N 54°58' W 005°01'5 9.5
2019-Mar-17 14:59N 55°01' W 005°07'816.5
2019-Mar-17 14:30N 54°58' W 005°19'917.5
2019-Mar-17 14:00N 54°55' W 005°33'917.5
2019-Mar-17 13:30N 54°52' W 005°47'1 2.0
2019-Mar-17 13:00N 54°51' W 005°48'0 0.0
2019-Mar-17 12:30N 54°51' W 005°48'0 0.0
2019-Mar-17 12:00N 54°51' W 005°48'0 0.0
2019-Mar-17 11:30N 54°51' W 005°48'0 0.0
2019-Mar-17 11:00N 54°51' W 005°48'0 0.0
2019-Mar-17 10:30N 54°51' W 005°48'0 0.0
2019-Mar-17 10:00N 54°51' W 005°48'0 0.0
2019-Mar-17 09:30N 54°51' W 005°48'611.6
2019-Mar-17 09:00N 54°54' W 005°39'917.1
2019-Mar-17 08:30N 54°58' W 005°26'816.6
2019-Mar-17 08:00N 55°01' W 005°13'713.4
2019-Mar-17 07:30N 54°58' W 005°02'1 1.5
2019-Mar-17 06:55N 54°58' W 005°01'0 0.0
2019-Mar-17 05:07N 54°58' W 005°01'0 0.0
2019-Mar-17 04:58N 54°58' W 005°01'0 0.0
2019-Mar-17 04:28N 54°58' W 005°01'0 0.0
2019-Mar-17 03:49N 54°58' W 005°01'0 0.0
2019-Mar-17 03:10N 54°58' W 005°01'0 0.0
2019-Mar-17 02:55N 54°58' W 005°01'0 0.0
2019-Mar-17 02:22N 54°58' W 005°01'0 0.0
2019-Mar-17 01:58N 54°58' W 005°01'0 0.0
2019-Mar-17 01:28N 54°58' W 005°01'0 0.0
2019-Mar-17 00:55N 54°58' W 005°01'0 0.0
2019-Mar-17 00:25N 54°58' W 005°01'0 0.0
2019-Mar-16 23:55N 54°58' W 005°01'0 0.0
2019-Mar-16 23:01N 54°58' W 005°01'0 0.0
2019-Mar-16 22:37N 54°58' W 005°01'0 0.0
2019-Mar-16 22:25N 54°58' W 005°01'0 0.0
2019-Mar-16 22:00N 54°58' W 005°01'510.7
2019-Mar-16 21:31N 55°02' W 005°07'917.5
2019-Mar-16 21:01N 54°58' W 005°21'917.2
2019-Mar-16 20:31N 54°55' W 005°35'816.2
2019-Mar-16 20:00N 54°51' W 005°48'0 0.3
2019-Mar-16 19:29N 54°51' W 005°48'0 0.0
2019-Mar-16 18:59N 54°51' W 005°48'0 0.0
2019-Mar-16 18:30N 54°51' W 005°48'510.1
2019-Mar-16 18:00N 54°53' W 005°41'816.6
2019-Mar-16 17:30N 54°57' W 005°28'816.4
2019-Mar-16 17:00N 55°01' W 005°15'713.4
2019-Mar-16 16:29N 54°59' W 005°03'2 2.7
2019-Mar-16 15:52N 54°58' W 005°01'0 0.0
2019-Mar-16 15:30N 54°58' W 005°01'510.1
2019-Mar-16 14:58N 55°02' W 005°08'816.9
2019-Mar-16 14:30N 54°58' W 005°20'918.0
2019-Mar-16 14:00N 54°54' W 005°34'816.8
2019-Mar-16 13:30N 54°51' W 005°48'0 0.5
2019-Mar-16 12:58N 54°51' W 005°48'0 0.0
2019-Mar-16 12:29N 54°51' W 005°48'510.8
2019-Mar-16 12:00N 54°54' W 005°40'1019.3
2019-Mar-16 11:30N 54°58' W 005°26'816.7
2019-Mar-16 11:00N 55°01' W 005°12'713.9
2019-Mar-16 10:30N 54°58' W 005°01'0 0.3
2019-Mar-16 10:00N 54°58' W 005°01'0 0.0
2019-Mar-16 09:30N 54°58' W 005°01'5 8.9
2019-Mar-16 08:56N 55°02' W 005°06'818.3
2019-Mar-16 08:31N 54°59' W 005°19'917.9
2019-Mar-16 08:01N 54°55' W 005°33'917.7
2019-Mar-16 07:31N 54°52' W 005°47'1 1.6
2019-Mar-16 06:58N 54°51' W 005°48'0 0.0
2019-Mar-16 06:28N 54°51' W 005°48'0 0.0
2019-Mar-16 05:59N 54°51' W 005°48'510.1
2019-Mar-16 05:30N 54°54' W 005°41'918.1
2019-Mar-16 05:00N 54°58' W 005°27'917.6
2019-Mar-16 04:30N 55°01' W 005°13'713.7
2019-Mar-16 04:00N 54°58' W 005°02'1 1.2
2019-Mar-16 03:22N 54°58' W 005°01'0 0.0
2019-Mar-16 02:46N 54°58' W 005°01'0 0.0
2019-Mar-16 02:28N 54°58' W 005°01'0 0.0
2019-Mar-16 01:59N 54°58' W 005°01'5 8.3
2019-Mar-16 01:23N 55°02' W 005°07'717.6
2019-Mar-16 01:00N 54°59' W 005°17'918.4
2019-Mar-16 00:30N 54°55' W 005°32'918.7
2019-Mar-16 00:00N 54°52' W 005°47'1 2.1
2019-Mar-15 23:30N 54°51' W 005°48'0 0.0
2019-Mar-15 23:00N 54°51' W 005°48'0 0.0
2019-Mar-15 22:30N 54°51' W 005°48'0 0.0
2019-Mar-15 22:00N 54°51' W 005°48'611.2
2019-Mar-15 21:30N 54°54' W 005°40'917.5
2019-Mar-15 21:00N 54°59' W 005°28'816.8
2019-Mar-15 20:30N 55°01' W 005°14'713.3
2019-Mar-15 20:00N 54°59' W 005°03'2 3.0
2019-Mar-15 19:27N 54°58' W 005°01'0 0.0
2019-Mar-15 19:00N 54°58' W 005°01'0 0.0
2019-Mar-15 18:30N 54°58' W 005°01'511.3
2019-Mar-15 18:00N 55°01' W 005°08'1121.7
2019-Mar-15 17:30N 54°57' W 005°25'1122.1
2019-Mar-15 17:00N 54°53' W 005°43'3 6.6
2019-Mar-15 16:29N 54°51' W 005°48'0 0.0
2019-Mar-15 15:59N 54°51' W 005°48'510.1
2019-Mar-15 15:30N 54°53' W 005°41'1020.8
2019-Mar-15 15:00N 54°58' W 005°25'1020.0
2019-Mar-15 14:30N 55°02' W 005°08'611.5
2019-Mar-15 14:00N 54°58' W 005°01'0 0.0
2019-Mar-15 13:29N 54°58' W 005°01'0 0.0
2019-Mar-15 13:00N 54°58' W 005°01'5 9.5
2019-Mar-15 12:29N 55°01' W 005°07'1020.9
2019-Mar-15 12:00N 54°58' W 005°23'1122.3
2019-Mar-15 11:30N 54°53' W 005°40'5 5.3
2019-Mar-15 10:35N 54°51' W 005°48'0 0.0
2019-Mar-15 10:23N 54°51' W 005°48'0 0.4
2019-Mar-15 10:00N 54°51' W 005°48'917.5
2019-Mar-15 09:30N 54°55' W 005°35'1020.8
2019-Mar-15 09:00N 55°00' W 005°19'916.3
2019-Mar-15 08:28N 54°59' W 005°03'2 3.5
2019-Mar-15 07:53N 54°58' W 005°01'0 0.0
2019-Mar-15 07:23N 54°58' W 005°01'0 0.0
2019-Mar-15 06:59N 54°58' W 005°01'0 0.0
2019-Mar-15 06:30N 54°58' W 005°01'510.6
2019-Mar-15 06:00N 55°02' W 005°07'1121.5
2019-Mar-15 05:31N 54°57' W 005°24'1122.0
2019-Mar-15 05:00N 54°53' W 005°42'4 8.1
2019-Mar-15 04:30N 54°51' W 005°48'0 0.0
2019-Mar-15 04:00N 54°51' W 005°48'0 0.0
2019-Mar-15 03:27N 54°51' W 005°48'0 0.0
2019-Mar-15 03:00N 54°51' W 005°48'612.2
2019-Mar-15 02:30N 54°54' W 005°39'1019.3
2019-Mar-15 02:00N 54°58' W 005°24'1018.9
2019-Mar-15 01:30N 55°02' W 005°08'612.5
2019-Mar-15 01:00N 54°58' W 005°01'0 0.0
2019-Mar-15 00:21N 54°58' W 005°01'0 0.0
2019-Mar-14 23:57N 54°58' W 005°01'0 0.0
2019-Mar-14 23:30N 54°58' W 005°01'0 0.0
2019-Mar-14 22:57N 54°58' W 005°01'5 8.3
2019-Mar-14 22:20N 55°02' W 005°07'617.2
2019-Mar-14 22:01N 54°60' W 005°16'917.8
2019-Mar-14 21:31N 54°56' W 005°30'917.9
2019-Mar-14 21:01N 54°52' W 005°44'3 4.8
2019-Mar-14 20:29N 54°51' W 005°48'0 0.0
2019-Mar-14 19:59N 54°51' W 005°48'0 0.0
2019-Mar-14 19:29N 54°51' W 005°48'0 0.7
2019-Mar-14 19:00N 54°51' W 005°48'815.9
2019-Mar-14 18:31N 54°55' W 005°36'816.8
2019-Mar-14 18:01N 54°59' W 005°23'816.1
2019-Mar-14 17:30N 55°02' W 005°09'612.4
2019-Mar-14 17:00N 54°58' W 005°01'0 0.0
2019-Mar-14 16:20N 54°58' W 005°01'0 0.0
2019-Mar-14 15:56N 54°58' W 005°01'0 0.0
2019-Mar-14 15:26N 54°58' W 005°01'510.8
2019-Mar-14 14:58N 55°02' W 005°07'919.0
2019-Mar-14 14:30N 54°59' W 005°21'1020.0
2019-Mar-14 14:00N 54°55' W 005°37'714.7
2019-Mar-14 13:30N 54°51' W 005°48'0 0.0
2019-Mar-14 12:58N 54°51' W 005°48'0 0.0
2019-Mar-14 12:28N 54°51' W 005°48'0 0.0
2019-Mar-14 11:58N 54°51' W 005°48'1 2.8
2019-Mar-14 11:29N 54°52' W 005°47'1020.2
2019-Mar-14 11:00N 54°57' W 005°32'1020.0
2019-Mar-14 10:30N 55°00' W 005°16'815.2
2019-Mar-14 10:00N 54°59' W 005°03'2 3.6
2019-Mar-14 09:29N 54°58' W 005°01'0 0.0
2019-Mar-14 08:59N 54°58' W 005°01'0 0.0
2019-Mar-14 08:11N 54°58' W 005°01'0 0.0
2019-Mar-14 07:59N 54°58' W 005°01'0 0.0
2019-Mar-14 07:30N 54°58' W 005°01'510.3
2019-Mar-14 07:00N 55°02' W 005°07'1021.1
2019-Mar-14 06:31N 54°57' W 005°23'1121.3
2019-Mar-14 06:00N 54°53' W 005°40'5 9.6
2019-Mar-14 05:30N 54°51' W 005°48'0 0.0
2019-Mar-14 05:00N 54°51' W 005°48'0 0.0
2019-Mar-14 04:30N 54°51' W 005°48'0 0.0
2019-Mar-14 04:00N 54°51' W 005°48'0 0.0
2019-Mar-14 03:30N 54°51' W 005°48'2 4.5
2019-Mar-14 03:01N 54°52' W 005°45'1121.1
2019-Mar-14 02:31N 54°57' W 005°28'1121.1
2019-Mar-14 02:00N 55°01' W 005°11'714.2
2019-Mar-14 01:30N 54°58' W 005°01'0 0.0
2019-Mar-14 00:26N 54°58' W 005°01'0 0.0
2019-Mar-13 23:56N 54°58' W 005°01'0 0.0
2019-Mar-13 23:26N 54°58' W 005°01'0 0.0
2019-Mar-13 22:59N 54°58' W 005°01'0 0.6
2019-Mar-13 22:30N 54°58' W 005°01'813.6
2019-Mar-13 21:55N 55°05' W 005°07'4 8.2
2019-Mar-13 21:28N 55°02' W 005°07'818.1
2019-Mar-13 21:00N 54°58' W 005°20'1020.4
2019-Mar-13 20:30N 54°54' W 005°36'714.8
2019-Mar-13 20:00N 54°51' W 005°48'0 0.1
2019-Mar-13 19:25N 54°51' W 005°48'0 0.0
2019-Mar-13 18:52N 54°51' W 005°48'0 0.0
2019-Mar-13 18:25N 54°51' W 005°48'2 5.6
2019-Mar-13 18:00N 54°53' W 005°45'1019.6
2019-Mar-13 17:30N 54°58' W 005°31'1019.1
2019-Mar-13 17:00N 55°02' W 005°16'814.2
2019-Mar-13 16:27N 54°59' W 005°03'2 2.3
2019-Mar-13 15:47N 54°58' W 005°01'0 0.0
2019-Mar-13 15:26N 54°58' W 005°01'0 0.0
2019-Mar-13 14:56N 54°58' W 005°01'0 0.0
2019-Mar-13 14:30N 54°58' W 005°01'5 9.8
2019-Mar-13 13:58N 55°02' W 005°07'920.2
2019-Mar-13 13:30N 54°59' W 005°22'1121.1
2019-Mar-13 13:00N 54°54' W 005°38'612.5
2019-Mar-13 12:30N 54°51' W 005°48'0 0.0
2019-Mar-13 11:55N 54°51' W 005°48'0 0.0
2019-Mar-13 11:25N 54°51' W 005°48'0 0.0
2019-Mar-13 10:55N 54°51' W 005°48'0 0.0
2019-Mar-13 10:25N 54°51' W 005°48'0 0.0
2019-Mar-13 09:55N 54°51' W 005°48'0 0.0
2019-Mar-13 09:25N 54°51' W 005°48'0 0.0
2019-Mar-13 08:55N 54°51' W 005°48'0 0.0
2019-Mar-13 08:25N 54°51' W 005°48'0 0.0
2019-Mar-13 07:55N 54°51' W 005°48'0 0.0
2019-Mar-13 07:25N 54°51' W 005°48'0 0.0
2019-Mar-13 06:55N 54°51' W 005°48'0 0.0
2019-Mar-13 06:25N 54°51' W 005°48'0 0.0
2019-Mar-13 05:55N 54°51' W 005°48'0 0.0
2019-Mar-13 05:25N 54°51' W 005°48'0 0.0
2019-Mar-13 04:55N 54°51' W 005°48'0 0.0
2019-Mar-13 04:25N 54°51' W 005°48'0 0.0
2019-Mar-13 03:55N 54°51' W 005°48'0 0.0
2019-Mar-13 03:25N 54°51' W 005°48'0 0.0
2019-Mar-13 02:55N 54°51' W 005°48'0 0.0
2019-Mar-13 01:55N 54°51' W 005°48'0 0.0
2019-Mar-13 01:25N 54°51' W 005°48'0 0.0
2019-Mar-13 00:55N 54°51' W 005°48'0 0.0
2019-Mar-13 00:25N 54°51' W 005°48'0 0.0
2019-Mar-12 23:55N 54°51' W 005°48'0 0.0
2019-Mar-12 23:25N 54°51' W 005°48'0 0.0
2019-Mar-12 22:55N 54°51' W 005°48'0 0.0
2019-Mar-12 22:25N 54°51' W 005°48'0 0.0
2019-Mar-12 21:55N 54°51' W 005°48'0 0.0
2019-Mar-12 21:25N 54°51' W 005°48'0 0.0
2019-Mar-12 20:55N 54°51' W 005°48'0 0.0
2019-Mar-12 20:25N 54°51' W 005°48'0 0.0
2019-Mar-12 19:49N 54°51' W 005°48'0 0.0
2019-Mar-12 19:30N 54°51' W 005°48'0 0.0
2019-Mar-12 19:00N 54°51' W 005°48'0 0.0
2019-Mar-12 18:30N 54°51' W 005°48'0 0.0
2019-Mar-12 18:00N 54°51' W 005°48'0 0.0
2019-Mar-12 17:30N 54°51' W 005°48'0 0.0
2019-Mar-12 17:00N 54°51' W 005°48'0 0.0
2019-Mar-12 16:30N 54°51' W 005°48'0 0.0
2019-Mar-12 16:00N 54°51' W 005°48'1 2.2
2019-Mar-12 15:30N 54°52' W 005°48'4 8.0
2019-Mar-12 15:00N 54°54' W 005°41'1019.5
2019-Mar-12 14:30N 54°58' W 005°26'815.8
2019-Mar-12 14:00N 55°01' W 005°13'613.0
2019-Mar-12 13:30N 54°59' W 005°02'1 2.7
2019-Mar-12 12:59N 54°58' W 005°01'  

Dump ship's entire track history